Time;durP1;ratioP1;P1;durP2;ratioP2;P2;SDS_P1;SDS_P2;PMS_P1;PMS_P2;Temp;Humidity;BMP_temperature;BMP_pressure;BME280_temperature;BME280_humidity;BME280_pressure;Samples;Min_cycle;Max_cycle;Signal;HPM_P1;HPM_P2
2021/08/11 03:57:49;;;;;;;252.43;231.10;;;12.90;99.90;;;;;;5934891;24;20455;-81
2021/08/11 04:00:16;;;;;;;247.57;231.33;;;13.10;99.90;;;;;;5981168;24;20422;-80
2021/08/11 04:03:42;;;;;;;251.90;237.63;;;13.20;99.90;;;;;;5981244;24;20412;-87
2021/08/11 04:06:15;;;;;;;246.03;234.20;;;13.30;99.90;;;;;;5894759;24;21021;-84
2021/08/11 04:08:42;;;;;;;241.70;226.00;;;13.20;99.90;;;;;;5990588;24;20418;-82
2021/08/11 04:11:09;;;;;;;240.43;225.33;;;13.10;99.90;;;;;;5979901;24;20498;-85
2021/08/11 04:13:37;;;;;;;238.67;223.93;;;13.00;99.90;;;;;;5980976;24;20552;-82
2021/08/11 04:16:04;;;;;;;235.60;223.03;;;13.00;99.90;;;;;;5981283;24;20407;-83
2021/08/11 04:18:31;;;;;;;235.53;221.43;;;13.00;99.90;;;;;;5990733;24;21019;-84
2021/08/11 04:20:58;;;;;;;237.23;220.40;;;13.00;99.90;;;;;;5990632;24;20457;-83
2021/08/11 04:23:26;;;;;;;226.00;212.37;;;13.00;99.90;;;;;;5980588;24;20454;-85
2021/08/11 04:25:53;;;;;;;238.37;219.00;;;12.90;99.90;;;;;;5979093;24;20400;-83
2021/08/11 04:28:20;;;;;;;224.73;212.27;;;12.90;99.90;;;;;;5981155;24;20489;-82
2021/08/11 04:30:49;;;;;;;228.40;215.17;;;13.00;99.90;;;;;;5990099;24;20418;-82
2021/08/11 04:33:18;;;;;;;234.60;220.10;;;13.00;99.90;;;;;;5990423;24;20508;-82
2021/08/11 04:35:45;;;;;;;235.23;219.93;;;13.00;99.90;;;;;;6034229;23;20441;-82
2021/08/11 04:38:12;;;;;;;231.57;214.00;;;13.00;99.90;;;;;;6221071;23;20465;-82
2021/08/11 04:40:46;;;;;;;234.03;213.57;;;13.00;99.90;;;;;;6224688;23;20508;-83
2021/08/11 04:43:16;;;;;;;245.30;226.20;;;13.10;99.90;;;;;;6216292;23;20397;-87
2021/08/11 04:45:44;;;;;;;235.27;220.07;;;13.00;99.90;;;;;;6216042;23;20906;-81
2021/08/11 05:20:27;;;;;;;227.43;216.63;;;13.70;99.90;;;;;;6205088;22;20471;-82
2021/08/11 05:22:54;;;;;;;227.03;215.87;;;13.90;99.90;;;;;;6225887;23;20475;-80
2021/08/11 05:45:57;;;;;;;237.60;225.50;;;15.60;99.90;;;;;;6210633;22;20496;-80
2021/08/11 05:48:34;;;;;;;241.47;228.87;;;15.90;99.90;;;;;;6225821;23;20403;-84
2021/08/11 06:18:11;;;;;;;;;;;;;;;;;;;;;
2021/08/11 06:30:54;;;;;;;234.97;221.47;;;16.50;99.90;;;;;;5743117;24;20477;-78
2021/08/11 06:33:21;;;;;;;246.80;233.50;;;16.70;99.90;;;;;;5861141;23;20531;-79
2021/08/11 06:35:48;;;;;;;252.10;238.43;;;17.10;99.90;;;;;;6187734;23;20416;-79
2021/08/11 06:38:15;;;;;;;246.07;232.70;;;17.40;99.90;;;;;;6215368;23;20450;-78
2021/08/11 06:40:44;;;;;;;230.73;218.23;;;17.60;99.90;;;;;;6223554;23;20435;-80
2021/08/11 06:43:11;;;;;;;215.70;203.67;;;17.80;99.90;;;;;;6215113;23;20907;-79
2021/08/11 06:46:08;;;;;;;177.63;167.63;;;18.00;99.90;;;;;;6215398;23;20443;-84
2021/08/11 06:48:56;;;;;;;152.20;143.53;;;18.00;99.90;;;;;;6208413;23;20739;-88
2021/08/11 06:51:30;;;;;;;143.07;134.97;;;17.90;99.90;;;;;;6213715;23;20396;-86
2021/08/11 06:53:57;;;;;;;133.57;126.17;;;18.00;99.90;;;;;;6223431;23;20442;-81
2021/08/11 06:56:24;;;;;;;128.60;121.33;;;18.10;99.90;;;;;;6222493;23;20431;-80
2021/08/11 06:58:51;;;;;;;126.93;119.93;;;18.10;99.90;;;;;;6215201;23;20404;-81
2021/08/11 07:01:18;;;;;;;124.63;117.83;;;18.20;99.90;;;;;;6225791;23;20740;-82
2021/08/11 07:03:46;;;;;;;124.13;117.17;;;18.30;99.90;;;;;;6215243;23;21005;-81
2021/08/11 07:06:13;;;;;;;121.00;114.17;;;18.40;99.90;;;;;;6215576;23;20404;-81
2021/08/11 07:08:43;;;;;;;112.80;106.73;;;18.50;99.90;;;;;;6225320;23;20411;-81
2021/08/11 07:11:10;;;;;;;109.73;103.73;;;18.60;99.90;;;;;;6214173;23;20404;-80
2021/08/11 07:13:36;;;;;;;99.30;93.77;;;18.70;99.90;;;;;;6216986;23;20506;-82
2021/08/11 09:25:44;;;;;;;;;;;;;;;;;;;;;
2021/08/11 09:28:24;;;;;;;14.67;9.37;;;23.60;52.30;;;;;;6094290;23;20865;-85
2021/08/11 10:54:04;;;;;;;6.03;3.60;;;30.80;10.50;;;;;;6179845;23;20906;-80
2021/08/11 10:56:58;;;;;;;;;;;;;;;;;;;;;
2021/08/11 10:59:50;;;;;;;7.63;3.97;;;31.30;8.30;;;;;;6191896;23;20405;-80
2021/08/11 11:02:48;;;;;;;6.53;3.77;;;32.00;5.00;;;;;;6194989;23;20793;-80
2021/08/11 11:06:01;;;;;;;5.23;3.10;;;31.20;4.70;;;;;;6185527;23;20712;-80
2021/08/11 11:08:38;;;;;;;5.03;2.97;;;30.20;4.40;;;;;;6185484;23;20401;-82
2021/08/11 11:14:52;;;;;;;5.77;3.00;;;29.00;10.30;;;;;;6184621;23;20803;-81
2021/08/11 11:17:21;;;;;;;5.70;3.63;;;28.60;8.00;;;;;;6185374;23;20507;-82
2021/08/11 11:20:27;;;;;;;6.53;3.47;;;28.20;11.40;;;;;;6185508;23;20488;-83
2021/08/11 11:23:01;;;;;;;7.60;3.10;;;27.90;12.00;;;;;;6183732;23;20408;-81
2021/08/11 11:32:47;;;;;;;6.20;3.40;;;27.10;12.00;;;;;;6103362;23;20518;-82
2021/08/11 11:35:19;;;;;;;6.77;3.20;;;26.20;15.80;;;;;;6008624;23;20513;-82
2021/08/11 11:38:11;;;;;;;5.03;2.60;;;26.50;16.60;;;;;;6148042;23;20409;-84
2021/08/11 11:41:11;;;;;;;7.93;3.50;;;27.70;14.20;;;;;;6184161;23;20401;-83
2021/08/11 11:43:39;;;;;;;6.50;3.97;;;28.60;8.80;;;;;;6184882;23;20404;-83
2021/08/11 11:46:07;;;;;;;7.87;3.37;;;29.40;9.20;;;;;;6186713;23;20397;-83
2021/08/11 11:49:20;;;;;;;5.80;3.53;;;29.60;5.70;;;;;;6196890;23;20835;-83
2021/08/11 11:51:50;;;;;;;5.90;3.30;;;30.30;3.20;;;;;;6196518;23;20415;-83
2021/08/11 11:54:18;;;;;;;6.57;3.40;;;30.60;4.70;;;;;;6196505;23;20467;-83
2021/08/11 11:56:48;;;;;;;7.80;3.60;;;30.70;5.10;;;;;;6185034;23;20402;-85
2021/08/11 11:59:16;;;;;;;6.80;3.50;;;29.90;2.90;;;;;;6187168;23;20455;-84
2021/08/11 12:01:43;;;;;;;7.53;3.83;;;30.40;2.20;;;;;;6187017;23;20495;-84
2021/08/11 12:04:22;;;;;;;6.30;3.17;;;30.30;3.20;;;;;;6187029;23;20412;-84
2021/08/11 12:06:53;;;;;;;6.57;3.43;;;29.90;2.50;;;;;;6187053;23;20401;-85
2021/08/11 12:09:47;;;;;;;8.20;3.77;;;29.10;5.60;;;;;;6196854;23;20401;-85
2021/08/11 12:12:16;;;;;;;5.90;2.97;;;29.30;4.90;;;;;;6185495;23;20378;-84
2021/08/11 12:14:43;;;;;;;6.00;4.07;;;30.80;1.00;;;;;;6196197;23;20443;-85
2021/08/11 12:17:28;;;;;;;8.97;2.97;;;31.60;1.00;;;;;;6196453;23;20456;-81
2021/08/11 12:19:55;;;;;;;5.80;2.83;;;30.40;1.00;;;;;;6186566;23;20400;-82
2021/08/11 12:22:41;;;;;;;5.40;3.03;;;29.50;2.70;;;;;;6186885;23;20435;-86
2021/08/11 12:25:21;;;;;;;6.10;3.00;;;30.40;3.20;;;;;;6186906;23;20479;-86
2021/08/11 12:28:07;;;;;;;5.97;3.03;;;30.30;1.00;;;;;;6185793;23;20782;-84
2021/08/11 12:30:34;;;;;;;6.33;3.33;;;30.50;2.50;;;;;;6186348;23;20881;-83
2021/08/11 12:33:02;;;;;;;6.10;3.40;;;31.30;1.00;;;;;;6186328;23;20496;-83
2021/08/11 12:35:30;;;;;;;8.97;3.30;;;31.30;1.00;;;;;;6186699;23;20499;-85
2021/08/11 12:37:59;;;;;;;5.27;2.90;;;31.40;1.00;;;;;;6186401;23;20901;-83
2021/08/11 13:05:42;;;;;;;5.40;2.37;;;28.60;1.50;;;;;;6195449;22;21311;-81
2021/08/11 13:08:27;;;;;;;5.23;2.63;;;27.70;2.70;;;;;;6225751;23;20778;-82
2021/08/11 13:11:43;;;;;;;;;;;;;;;;;;;;;
2021/08/11 13:14:55;;;;;;;7.40;3.20;;;27.90;5.90;;;;;;6180164;23;20494;-82
2021/08/11 13:18:28;;;;;;;;;;;;;;;;;;;;;
2021/08/11 13:24:14;;;;;;;5.30;2.33;;;29.40;1.00;;;;;;6077619;22;20201;-77
2021/08/11 13:26:40;;;;;;;8.00;3.33;;;28.60;1.20;;;;;;6224762;23;20420;-77
2021/08/11 13:29:07;;;;;;;5.80;2.60;;;28.10;5.40;;;;;;6226329;23;20408;-76
2021/08/11 13:31:34;;;;;;;5.07;2.67;;;27.60;6.50;;;;;;6216202;23;20400;-76
2021/08/11 13:34:01;;;;;;;7.20;3.50;;;27.60;4.20;;;;;;6216288;23;20431;-76
2021/08/11 13:36:29;;;;;;;6.07;3.23;;;27.30;5.90;;;;;;6216184;23;20401;-77
2021/08/11 13:38:56;;;;;;;6.30;3.03;;;26.60;11.00;;;;;;6216025;23;20401;-81
2021/08/11 13:41:24;;;;;;;7.03;3.10;;;25.80;11.60;;;;;;6214659;23;20487;-77
2021/08/11 13:43:51;;;;;;;8.43;3.77;;;27.40;8.40;;;;;;6215649;23;20975;-77
2021/08/11 13:46:18;;;;;;;8.43;3.10;;;29.10;2.50;;;;;;6216063;23;20439;-78
2021/08/11 13:48:44;;;;;;;7.47;3.40;;;30.20;1.00;;;;;;6215983;23;20404;-77
2021/08/11 16:55:30;;;;;;;7.67;3.97;;;28.60;3.00;;;;;;5776257;24;20171;-83
2021/08/11 16:57:57;;;;;;;7.30;3.50;;;29.00;1.00;;;;;;5883603;23;20532;-81
2021/08/11 17:00:25;;;;;;;7.20;4.10;;;29.40;1.40;;;;;;6009231;23;20977;-84
2021/08/11 17:02:51;;;;;;;9.23;4.07;;;28.70;2.30;;;;;;6009317;23;20413;-79
2021/08/11 17:05:18;;;;;;;6.87;4.00;;;28.00;4.90;;;;;;6109864;23;20528;-79
2021/08/11 17:07:45;;;;;;;8.27;4.80;;;27.90;3.80;;;;;;6151532;23;20459;-78
2021/08/11 17:10:13;;;;;;;6.50;3.73;;;27.90;5.60;;;;;;6154967;23;20406;-78
2021/08/11 17:12:41;;;;;;;9.53;4.27;;;27.00;7.90;;;;;;6153860;23;20402;-78
2021/08/11 17:15:09;;;;;;;9.00;4.50;;;26.50;8.90;;;;;;6156417;23;20445;-76
2021/08/11 17:17:36;;;;;;;9.10;5.10;;;27.00;7.60;;;;;;6156476;23;20402;-81
2021/08/11 17:20:03;;;;;;;7.57;4.80;;;27.10;8.80;;;;;;6156350;23;20498;-82
2021/08/11 17:22:30;;;;;;;8.23;4.97;;;27.70;8.50;;;;;;6156447;23;20409;-77
2021/08/11 17:24:57;;;;;;;7.97;4.57;;;28.30;4.10;;;;;;6156290;23;20430;-78
2021/08/11 17:27:24;;;;;;;10.03;4.67;;;27.80;5.00;;;;;;6154772;23;20398;-78
2021/08/11 17:29:52;;;;;;;7.90;4.43;;;27.40;6.70;;;;;;6156449;23;20425;-76
2021/08/11 17:32:19;;;;;;;9.63;4.57;;;26.70;9.10;;;;;;6156400;23;20449;-76
2021/08/11 17:34:46;;;;;;;7.47;4.30;;;26.40;9.50;;;;;;6155949;23;21084;-77
2021/08/11 17:37:13;;;;;;;8.27;4.60;;;25.90;11.50;;;;;;6165887;23;20734;-77
2021/08/11 17:39:39;;;;;;;10.77;4.63;;;26.30;12.20;;;;;;6156442;23;20426;-77
2021/08/11 17:42:07;;;;;;;6.90;3.80;;;27.00;9.20;;;;;;6153994;23;20485;-78
2021/08/11 17:44:33;;;;;;;8.53;4.73;;;27.50;9.50;;;;;;6156219;23;20462;-80
2021/08/11 17:47:02;;;;;;;7.80;4.50;;;27.60;6.50;;;;;;6156144;23;20485;-77
2021/08/11 17:49:28;;;;;;;8.00;4.77;;;27.20;5.50;;;;;;6155884;23;20398;-77
2021/08/11 17:51:55;;;;;;;11.47;5.30;;;26.80;9.10;;;;;;6156286;23;20426;-77
2021/08/11 17:54:22;;;;;;;9.83;4.90;;;26.20;10.00;;;;;;6156191;23;20404;-78
2021/08/11 17:56:49;;;;;;;7.37;4.70;;;25.70;11.60;;;;;;6154705;23;20402;-76
2021/08/11 17:59:15;;;;;;;16.73;4.70;;;25.20;12.90;;;;;;6156112;23;20492;-77
2021/08/11 18:01:43;;;;;;;9.50;4.80;;;25.00;15.30;;;;;;6155666;23;20398;-78
2021/08/11 18:04:11;;;;;;;10.17;4.80;;;24.80;16.90;;;;;;6156078;23;20398;-78
2021/08/11 18:07:12;;;;;;;;;;;;;;;;;;;;;
2021/08/11 18:09:39;;;;;;;12.13;4.93;;;24.30;18.70;;;;;;6165890;23;20402;-81
2021/08/11 18:12:06;;;;;;;9.07;5.33;;;24.00;19.10;;;;;;6163929;23;20825;-81
2021/08/11 18:14:33;;;;;;;8.40;4.90;;;23.90;19.50;;;;;;6155889;23;20517;-81
2021/08/11 18:17:00;;;;;;;8.50;4.70;;;23.80;21.30;;;;;;6155772;23;20448;-81
2021/08/11 18:19:28;;;;;;;11.60;5.87;;;23.60;22.20;;;;;;6155559;23;20436;-81
2021/08/11 18:21:55;;;;;;;9.00;5.60;;;23.50;23.80;;;;;;6156005;23;21056;-82
2021/08/11 18:24:22;;;;;;;10.37;4.90;;;23.40;22.20;;;;;;6165510;23;20416;-81
2021/08/11 18:26:49;;;;;;;9.47;5.00;;;23.30;25.40;;;;;;6154190;23;20520;-81
2021/08/11 18:29:16;;;;;;;11.07;5.87;;;23.10;25.30;;;;;;6155976;23;20421;-82
2021/08/11 18:31:43;;;;;;;8.10;5.40;;;23.00;26.70;;;;;;6155510;23;20402;-82
2021/08/11 18:34:10;;;;;;;8.90;5.27;;;22.90;29.10;;;;;;6161999;23;20409;-83
2021/08/11 18:36:40;;;;;;;8.07;4.97;;;22.80;29.00;;;;;;6163691;23;20480;-82
2021/08/11 18:39:08;;;;;;;8.20;5.47;;;22.70;33.60;;;;;;6153758;23;20406;-85
2021/08/11 18:41:37;;;;;;;9.97;6.83;;;22.60;36.40;;;;;;6152597;23;21009;-83
2021/08/11 18:44:08;;;;;;;8.80;5.73;;;22.50;37.60;;;;;;6154049;23;20405;-82
2021/08/11 18:46:36;;;;;;;9.77;6.30;;;22.30;37.40;;;;;;6154307;23;20473;-81
2021/08/11 18:49:04;;;;;;;11.53;7.57;;;22.20;39.20;;;;;;6154145;23;20726;-81
2021/08/11 18:51:31;;;;;;;11.40;6.23;;;22.00;40.10;;;;;;6163633;23;20950;-82
2021/08/11 18:53:59;;;;;;;9.43;6.10;;;21.90;42.10;;;;;;6154567;23;20404;-82
2021/08/11 18:56:28;;;;;;;8.60;6.10;;;21.70;41.80;;;;;;6164552;23;20464;-83
2021/08/11 18:58:55;;;;;;;9.80;6.50;;;21.60;42.30;;;;;;6166061;23;20933;-82
2021/08/11 19:01:21;;;;;;;10.93;5.90;;;21.40;42.50;;;;;;6166684;23;20406;-82
2021/08/11 19:04:12;;;;;;;7.77;5.60;;;21.20;41.70;;;;;;6157751;23;20405;-85
2021/08/11 19:06:39;;;;;;;9.73;6.50;;;21.10;45.40;;;;;;6141975;23;20829;-78
2021/08/11 19:09:08;;;;;;;11.97;6.63;;;20.90;47.60;;;;;;6157785;23;20543;-76
2021/08/11 19:11:35;;;;;;;9.67;7.23;;;20.80;50.70;;;;;;6156245;23;20408;-76
2021/08/11 19:14:02;;;;;;;8.97;6.80;;;20.70;52.00;;;;;;6157652;23;20524;-76
2021/08/11 19:16:29;;;;;;;9.33;6.70;;;20.60;53.80;;;;;;6157550;23;20773;-75
2021/08/11 19:18:56;;;;;;;12.30;7.10;;;20.40;53.60;;;;;;6157479;23;20398;-75
2021/08/11 19:21:23;;;;;;;9.23;6.17;;;20.40;53.60;;;;;;6157633;23;20413;-76
2021/08/11 19:23:50;;;;;;;7.20;4.90;;;20.30;53.50;;;;;;6157495;23;20425;-76
2021/08/11 19:26:18;;;;;;;11.47;6.77;;;20.20;53.40;;;;;;6155308;23;20440;-78
2021/08/11 19:28:45;;;;;;;9.00;6.23;;;20.10;53.40;;;;;;6157496;23;20448;-75
2021/08/11 19:31:12;;;;;;;9.60;6.50;;;20.00;55.20;;;;;;6157214;23;20922;-76
2021/08/11 19:33:39;;;;;;;8.17;5.80;;;19.90;57.80;;;;;;6157362;23;20710;-76
2021/08/11 19:59:57;;;;;;;13.87;12.50;;;19.10;83.90;;;;;;6225904;23;20703;31
